Corsair sp120 rgb fans 3 pack with controllerCpo earth science worksheetsHeljan train
Vdsl2 modem walmart

Usa residential ip

What channels are on hulu ad free

Madeira thread

Osrs 3 tick fishing with knife

Synology ups protocol

Simplifying radicals expressions 7.1 answers
  • Trimble access 2020 download
Ford f150 overdrive solenoid

Alqds metar

metar. estaciones: descripcion: mpto (m) 311600z 06005kt 9999 sct020 28/24 q1012 nosig= ... 311600z 33010kt 9000 sct020 28//// q1012 rmk hz alqds= mppn (m) 311600z ... metar: ptpn 140512z 08008kt 15sm bkn018tcu bkn130 ovc300 30/26 a2969 rmk tcu alqds last METAR KBHM 221953Z 23005KT 3SM TSRA BKN024 BKN033CB OVC045 18/16 A3015 RMK AO2 PK WND 20033/1943 TSB30RAE1855B12 SLP203 OCNL LTGIC ALQDS TS ALQDS MOV NE P0069 T01830156 What is the type of report? Select one: a. TAF b. SPECI c. METAR d. PIREP Feedback The correct answer is: METAR Correct Marks for this submission: 2.00/2.00. METAR KTT' 051853Z 04011KT 1/2SM VCTS S' FZFG BK'003 OVC010 M02/M02 A3006 RMK AO2 TSB40 SLP176 P0002 T10171017=[7] • METAR indicates that the following is a standard hourly observation. METAR KBHM 221953Z 23005KT 3SM TSRA BKN024 BKN033CB OVC045 18/16 A3015 RMK AO2 PK WND 20033/1943 TSB30RAE1855B12 SLP203 OCNL LTGIC ALQDS TS ALQDS MOV NE P0069 T01830156 What is the type of report? Select one: a. TAF b. SPECI c. METAR d. PIREP Feedback The correct answer is: METAR Correct Marks for this submission: 2.00/2.00. METAR, Aviation Routine Weather Reports (AIM 7-1-12) METAR = METeorological(气象学的) Aviation Routine Report. 样例 (METAR) KDVT 052253Z 13007G15KT 10SM CLR 32/16 A2987 RMK AO2 SLP088 T03220156. 发布时间. Normally this will be an hourly surface weather observation issued 5 minutes before each hour. 解读. METAR. Two types: 9.5.1. Broaden Knowledge & Comprehension. B1. Access a surface weather map that shows station plot information for Denver, Colorado USA. Decode the plotted pressure value, and tell how you can identify whether that pressure is the actual station pressure, or is the pressure reduced to sea level. Raw METAR is the most popular format in the world for the transmission of weather data. It is highly standardized through International Civil Aviation Organization (ICAO)...DAUT 141300Z 00000KT CAVOK 24/03 Q1017 MRPV 141400Z 12010KT CAVOK 22/14 A3008 NOSIG KCOD 141356Z AUTO 05003KT 10SM OVC070 M08/M09 A2991 RMK AO2 SLP194 T10781094 FZRANO YMYB 141400 Weather Symbols. Symbol. METAR Code. Description. Dust or sand.Latest METAR text: Enter 4-letter ICAO station identifier. If more than one, be sure to insert one or Raw Format Translated. METARs. most recent only past 1 hours past 2 hours past 3 hours past 4...Jun 04, 2013 · metar tjsj 041956z vrb04kt 9sm few033 sct075 sct110 32/22 a2999 rmk ao2 slp153 hz alqds t03170217. 95. 73. metar. estaciones: descripcion: mpto (m) 311600z 06005kt 9999 sct020 28/24 q1012 nosig= ... 311600z 33010kt 9000 sct020 28//// q1012 rmk hz alqds= mppn (m) 311600z ... METAR KABC 121755Z AUTO 21016G24KT 180V240 1SM R11/P6000FT - RA BR BKN015 OVC025 06/04 A2990 RMK AO2 PK WND 20032/25 WSHFT 1715 VIS 3/4V1 1/2 VIS 3/4 RWY11 RAB07 CIG 013V017 CIG 017 RWY11 PRESFR SLP125 P0003 600 09 T00640036 10066 21012 58033 TSNO $ TYPE OF REPORT METAR: hourly (scheduled) report; SPECI: special (unscheduled) report. METAR No METAR found for this airport. Error loading METARs. Towering cumulus. Remark: AO2 RAE07 TSB10E41 CB DSNT S TCU ALQDS P0000 T03060228 $.

  • Access investing morgan stanley
  • Ipad 2019 32gb
  • Angular unit test drag and drop
####018001134#### saci51 rjtd 110100 metar zbaa 110100z 01001mps cavok 07/00 q1029 nosig= metar zbtj 110100z 19002mps 170v240 4000 hz nsc 12/02 q1029 nosig= metar zbyn 110100z vrb01mps 5000 hz nsc 07/m01 q1028 nosig= metar zggg 110100z 07002mps 040v110 cavok 21/07 q1024 nosig= metar zgkl 110100z 02002mps cavok 15/09 q1026 becmg fm0300 05007mps= metar zgnn 110100z 36003mps 330v040 cavok 20/09 ... metar: ptkk 031251z vrb04kt 14sm -shra sct012cb bkn120 ovc280 26/25 a2983 rmk shrab12 cb alqds slp101 t02550245 METAR KTT' 051853Z 04011KT 1/2SM VCTS S' FZFG BK'003 OVC010 M02/M02 A3006 RMK AO2 TSB40 SLP176 P0002 T10171017=[7] • METAR indicates that the following is a standard hourly observation. The standard METAR format is used all over the world and is the only weather report of its ~ approved by the World Meteorological Organization. Take a look below at example 1. To the non-aviator this is just a jumble of letters and numbers, but to us, it is an invaluable tool. metar: ptpn 020450z 30005kt 15sm bkn018tcu bkn130 ovc300 28/26 a2975 rmk tcu alqds last 000 nzus99 kbou 010007 synbou hot-air balloon forecast for colorado national weather service denver/boulder, colorado 1805 mdt sunday, may 31, 2020 * * * * * northeast colorado * * * * * metar kfnl 312356z 01008kt 10sm sct100 24/11 a3005 rmk ao2 ltg dsnt ne tse37 slp125 t02390106 10317 20217 53009 speci kfnl 312343z 02010kt 10sm bkn110 24/11 a3005 rmk ao2 ltg dsnt ne tse37 metar kfnl 312256z ... atlanta tornado. One person is dead and Atlanta is under a state of emergency as the city picks up from the first downtown tornado in history. The latest developments: Another large storm system was moving through metro Atlanta during the 4 p.m. hour. Doing the most damage: marble-sized hail, which left dents in cars in DeKalb County and covered lawns like snow. Certificate Holder, National Weather Service Certificate of Authority to Take Weather Observations A METAR is the Aviation Routine Weather Observation created at thousands of locations (primarily, airports) around the world every hour. It provides insight on a number of weather elements being observed at the airport or observing location. metar: cyvr 261800z 17014g21kt 20sm few012 few025 sct061 ovc075 07/04 a2981 rmk cf1sc1sc4ac4 cf tr sc tr virga alqds presrr slp095